Airfield :
LOGIN :

Register | Disclaimer

   EN    FR    IT 

 










Legend :    VFR   Marginal VFR   IFR   Intensive IFR   Very Intensive IFR
Visi :
Ceiling :
>= 8 km
>= 3000ft
5 to 8 km
1000 to 3000 ft
1500m to 5 km
500 to 1000 ft
800 to 1500m
200 to 500 ft
< 800m
< 200 ft
Symbols :   Thunderstorms  Fog  Heavy snow  Heavy precipitations  Wind > 20 kt
SIGMETs :     Misc.  Thunderstorms  Icing  Turbulence  Mountain Waves  Volcanic Ashes







- Airport Elevation : 20 ft


EBFN - Koksijde

CURRENT METAR :
  • 160825Z AUTO 32011KT 9999 BKN018/// 05/03 Q1014 WHT

EXPIRED METARs :
  • 160755Z AUTO 33011KT 9999 BKN019/// 05/03 Q1013 WHT
  • 160725Z AUTO 33013KT 9999 BKN017/// 05/03 Q1013 WHT
  • 160655Z AUTO 33013KT 9999 BKN016/// 05/03 Q1012 WHT
  • 160625Z AUTO 33012KT 9999 BKN014/// BKN070/// 05/03 Q1012 GRN
  • 160555Z AUTO 33011KT 9999 BKN014/// 05/03 Q1011 GRN

TAF TAF EBFN
Valid from the 16 at 07:00 until the 16 at 16:00 UTC


160541Z 1607/1616 32015G25KT 9999 FEW012 SCT020
TEMPO 1607/1616 5000 -SHRA FEW008 SCT014 BKN020
No reported NOTAMs for that airfield.



MET'MAP, your aeronautical weather chart ! - Copyright ORBIFLY December 2007 - Disclaimer

ORBIFLY MET'MAP TEAM :

Programming & Development : Alexandra Zaïnal
Concept & Development : Baudouin d'Aumeries
Co-Development & Prog : Marc-Olivier Méhu
Technical & hardware support : Manuel Goepfert

Contact : metmap@orbifly.com




SOURCES & CREDITS :

   NOAA